Time;durP1;ratioP1;P1;durP2;ratioP2;P2;SDS_P1;SDS_P2;PMS_P1;PMS_P2;Temp;Humidity;BMP_temperature;BMP_pressure;BME280_temperature;BME280_humidity;BME280_pressure;Samples;Min_cycle;Max_cycle;Signal;HPM_P1;HPM_P2
2023/03/04 00:04:21;;;;;;;19.98;10.73;;;;;;;0.90;58.82;98103.94;10390874;28;20108;-77
2023/03/04 00:09:43;;;;;;;17.27;9.57;;;;;;;0.79;59.30;98093.84;10377102;28;20046;-77
2023/03/04 00:15:04;;;;;;;21.23;11.20;;;;;;;0.70;59.82;98094.97;10390552;28;20072;-77
2023/03/04 00:20:25;;;;;;;20.70;11.23;;;;;;;0.72;59.18;98086.19;10404144;28;20041;-77
2023/03/04 00:25:46;;;;;;;20.45;12.25;;;;;;;0.69;59.57;98096.22;10403560;28;20045;-77
2023/03/04 00:31:07;;;;;;;22.17;11.80;;;;;;;0.64;59.74;98094.28;10390121;28;20125;-78
2023/03/04 00:36:27;;;;;;;19.02;10.85;;;;;;;0.61;59.37;98095.31;10389604;28;20044;-77
2023/03/04 00:41:48;;;;;;;20.15;10.07;;;;;;;0.51;59.59;98091.47;10375902;28;20072;-77
2023/03/04 00:47:09;;;;;;;20.15;10.68;;;;;;;0.47;59.97;98085.50;10389086;28;20128;-78
2023/03/04 00:52:30;;;;;;;18.85;10.65;;;;;;;0.45;59.95;98099.00;10375294;28;20088;-77
2023/03/04 00:57:51;;;;;;;20.75;11.30;;;;;;;0.36;59.76;98088.38;10389158;28;20065;-77
2023/03/04 01:03:13;;;;;;;21.50;11.65;;;;;;;0.27;60.10;98086.72;10389989;28;20053;-77
2023/03/04 01:08:34;;;;;;;21.10;11.57;;;;;;;0.22;60.64;98071.81;10415692;28;20048;-77
2023/03/04 01:13:54;;;;;;;23.92;12.63;;;;;;;0.19;59.84;98061.88;10415167;28;20045;-77
2023/03/04 01:19:15;;;;;;;26.25;13.30;;;;;;;0.12;60.64;98059.72;10415107;28;20478;-77
2023/03/04 01:24:36;;;;;;;31.48;14.82;;;;;;;0.10;61.01;98056.75;10415122;28;20053;-77
2023/03/04 01:29:58;;;;;;;23.23;12.35;;;;;;;0.04;61.12;98049.81;10415312;28;20037;-78
2023/03/04 01:35:19;;;;;;;23.38;12.07;;;;;;;0.01;60.39;98050.88;10414626;28;20114;-77
2023/03/04 01:40:40;;;;;;;24.95;13.07;;;;;;;-0.07;61.16;98036.97;10442078;28;20045;-77
2023/03/04 01:46:01;;;;;;;22.98;12.15;;;;;;;-0.09;61.27;98025.78;10414521;28;20447;-77
2023/03/04 01:51:21;;;;;;;23.33;12.68;;;;;;;-0.05;61.16;98015.97;10414097;28;20102;-77
2023/03/04 01:56:44;;;;;;;24.25;13.00;;;;;;;-0.12;61.03;98007.56;10428026;28;20450;-77
2023/03/04 02:02:04;;;;;;;25.73;13.20;;;;;;;-0.16;61.74;98013.34;10414351;28;20064;-77
2023/03/04 02:07:26;;;;;;;22.05;12.30;;;;;;;-0.19;61.50;98000.69;10427882;28;20092;-77
2023/03/04 02:12:46;;;;;;;23.00;13.05;;;;;;;-0.30;61.46;97996.03;10414442;28;20564;-77
2023/03/04 02:18:17;;;;;;;24.70;12.75;;;;;;;-0.31;61.67;97985.56;10413797;28;20045;-77
2023/03/04 02:24:01;;;;;;;24.60;12.80;;;;;;;-0.35;61.40;97976.91;10427893;28;20045;-77
2023/03/04 02:29:22;;;;;;;22.90;12.30;;;;;;;-0.39;62.08;97976.44;10429750;28;20045;-77
2023/03/04 02:34:47;;;;;;;24.02;12.55;;;;;;;-0.49;61.73;97967.06;10413438;28;20046;-77
2023/03/04 02:40:13;;;;;;;22.42;13.27;;;;;;;-0.53;61.46;97972.84;10427087;28;20041;-77
2023/03/04 02:45:40;;;;;;;25.08;12.57;;;;;;;-0.51;61.91;97959.34;10399799;28;20068;-77
2023/03/04 02:51:01;;;;;;;23.48;12.85;;;;;;;-0.53;61.92;97956.41;10421518;28;20040;-77
2023/03/04 02:56:25;;;;;;;24.05;13.45;;;;;;;-0.54;62.36;97954.91;10421353;28;20052;-77
2023/03/04 03:01:46;;;;;;;21.25;12.65;;;;;;;-0.54;62.50;97954.16;10420839;28;20517;-77
2023/03/04 03:07:07;;;;;;;25.80;13.27;;;;;;;-0.52;62.65;97952.41;10434210;28;20061;-77
2023/03/04 03:12:30;;;;;;;23.38;12.10;;;;;;;-0.53;62.82;97950.91;10434634;28;20123;-77
2023/03/04 03:17:51;;;;;;;22.65;12.85;;;;;;;-0.57;62.51;97946.97;10435044;28;20115;-77
2023/03/04 03:23:12;;;;;;;24.92;12.50;;;;;;;-0.62;62.96;97949.25;10392572;28;20076;-79
2023/03/04 03:28:32;;;;;;;22.83;12.43;;;;;;;-0.58;62.59;97957.19;10372989;28;20466;-79
2023/03/04 03:33:53;;;;;;;26.20;13.35;;;;;;;-0.66;62.89;97954.28;10389023;28;20038;-79
2023/03/04 03:39:14;;;;;;;25.27;13.50;;;;;;;-0.71;63.04;97935.13;10373130;28;20108;-79
2023/03/04 03:44:35;;;;;;;22.85;13.07;;;;;;;-0.76;62.78;97938.69;10400272;28;20111;-79
2023/03/04 03:49:56;;;;;;;25.83;12.95;;;;;;;-0.80;62.77;97932.75;10386491;28;20048;-79
2023/03/04 03:55:17;;;;;;;23.30;11.70;;;;;;;-0.88;62.71;97927.06;10386575;28;20037;-79
2023/03/04 04:00:37;;;;;;;22.75;12.00;;;;;;;-0.88;63.31;97922.34;10396726;28;20064;-79
2023/03/04 04:05:58;;;;;;;26.10;12.93;;;;;;;-0.84;63.40;97930.28;10387721;28;20482;-79
2023/03/04 04:11:19;;;;;;;23.88;11.75;;;;;;;-0.78;62.78;97935.72;10386171;28;20112;-79
2023/03/04 04:16:40;;;;;;;23.00;10.55;;;;;;;-0.78;62.76;97927.47;10399501;28;20049;-79
2023/03/04 04:22:01;;;;;;;23.00;11.95;;;;;;;-0.78;63.66;97927.47;10386046;28;20065;-79
2023/03/04 04:27:22;;;;;;;21.92;10.52;;;;;;;-0.76;63.43;97935.97;10385852;28;20069;-79
2023/03/04 04:32:43;;;;;;;20.08;10.32;;;;;;;-0.81;63.46;97932.00;10385672;28;20044;-79
2023/03/04 04:38:04;;;;;;;21.40;10.18;;;;;;;-0.81;64.03;97928.53;10385453;28;20044;-79
2023/03/04 04:43:25;;;;;;;19.75;9.70;;;;;;;-0.79;63.90;97928.75;10384917;28;20430;-79
2023/03/04 04:48:46;;;;;;;21.10;10.93;;;;;;;-0.79;64.13;97926.75;10379483;28;20554;-79
2023/03/04 04:54:07;;;;;;;24.30;10.45;;;;;;;-0.75;63.96;97921.72;10370922;28;20041;-79
2023/03/04 04:59:27;;;;;;;19.10;10.15;;;;;;;-0.65;63.61;97922.13;10371774;28;20463;-79
2023/03/04 05:04:48;;;;;;;19.20;9.90;;;;;;;-0.51;64.23;97914.75;10379256;28;20080;-79
2023/03/04 05:10:09;;;;;;;21.70;10.98;;;;;;;-0.54;63.94;97922.00;10370531;28;20034;-79
2023/03/04 05:15:30;;;;;;;21.75;10.13;;;;;;;-0.59;63.90;97922.78;10368028;28;20046;-79
2023/03/04 05:20:52;;;;;;;18.50;9.55;;;;;;;-0.64;64.34;97929.84;10376185;28;20294;-79
2023/03/04 05:26:15;;;;;;;19.63;10.15;;;;;;;-0.66;64.16;97937.84;10364693;28;20171;-79
2023/03/04 05:31:36;;;;;;;20.85;10.90;;;;;;;-0.65;64.05;97946.81;10356631;28;20065;-79
2023/03/04 05:36:56;;;;;;;17.77;9.10;;;;;;;-0.63;64.22;97952.50;10383605;28;20099;-79
2023/03/04 05:42:17;;;;;;;20.27;10.00;;;;;;;-0.60;64.21;97948.72;10356434;28;20056;-79
2023/03/04 05:47:38;;;;;;;18.50;9.60;;;;;;;-0.52;64.49;97955.13;10383552;28;20104;-79
2023/03/04 05:52:59;;;;;;;20.48;10.40;;;;;;;-0.33;64.32;97944.22;10383280;28;20045;-79
2023/03/04 05:58:20;;;;;;;19.35;10.57;;;;;;;0.23;64.36;97952.50;10381257;28;20061;-79
2023/03/04 06:03:42;;;;;;;18.20;10.23;;;;;;;1.13;63.68;97956.63;10378344;28;20125;-79
2023/03/04 06:09:03;;;;;;;20.20;10.75;;;;;;;2.07;62.81;97958.88;10394873;28;20041;-79
2023/03/04 06:14:24;;;;;;;21.55;11.00;;;;;;;2.52;61.85;97966.19;10365421;28;20399;-79
2023/03/04 06:19:45;;;;;;;18.77;10.93;;;;;;;3.16;59.89;97971.19;10361352;28;20053;-80
2023/03/04 06:25:06;;;;;;;19.73;10.90;;;;;;;2.74;59.33;97971.19;10371056;28;20045;-78
2023/03/04 06:30:27;;;;;;;19.83;9.98;;;;;;;2.96;59.59;97978.19;10377961;28;20499;-78
2023/03/04 06:35:48;;;;;;;17.40;9.38;;;;;;;2.67;58.84;97982.88;10377703;28;20502;-78
2023/03/04 06:41:09;;;;;;;18.80;9.90;;;;;;;2.32;58.98;97975.13;10390321;28;20041;-78
2023/03/04 06:46:32;;;;;;;20.58;11.90;;;;;;;2.15;60.04;97973.50;10383963;28;20067;-78
2023/03/04 06:51:53;;;;;;;22.38;11.15;;;;;;;2.38;59.39;97990.28;10371413;28;20803;-78
2023/03/04 06:57:14;;;;;;;17.13;9.82;;;;;;;2.29;59.76;97987.97;10379908;28;20045;-78
2023/03/04 07:02:35;;;;;;;16.10;9.80;;;;;;;2.65;59.93;97990.22;10406316;28;20085;-78
2023/03/04 07:07:56;;;;;;;16.75;9.27;;;;;;;2.84;59.63;97982.50;10392268;28;20099;-78
2023/03/04 07:13:17;;;;;;;18.02;9.18;;;;;;;2.98;58.25;97989.44;10394704;28;20073;-77
2023/03/04 07:18:37;;;;;;;16.60;9.00;;;;;;;3.53;58.47;97986.56;10396060;28;20099;-78
2023/03/04 07:23:58;;;;;;;18.00;10.00;;;;;;;4.68;55.89;97996.16;10406668;28;20499;-78
2023/03/04 07:29:19;;;;;;;13.90;8.32;;;;;;;4.68;54.95;97985.09;10406818;28;20092;-78
2023/03/04 07:34:40;;;;;;;15.88;9.10;;;;;;;6.93;55.96;97981.56;10377676;28;20172;-79
2023/03/04 07:40:01;;;;;;;13.50;8.48;;;;;;;11.83;51.07;97989.31;10406623;28;20068;-79
2023/03/04 07:45:22;;;;;;;13.52;9.13;;;;;;;13.84;46.68;97989.94;10393487;28;20045;-78
2023/03/04 07:50:43;;;;;;;13.80;9.10;;;;;;;15.64;44.35;97987.25;10390671;28;20041;-81
2023/03/04 07:56:04;;;;;;;18.42;12.05;;;;;;;12.86;42.36;97990.38;10392012;28;20048;-78
2023/03/04 08:01:33;;;;;;;15.73;10.55;;;;;;;10.53;41.14;97995.06;10391407;28;20042;-77
2023/03/04 08:06:54;;;;;;;15.63;10.35;;;;;;;8.41;43.98;97989.53;10392196;28;20049;-77
2023/03/04 08:12:15;;;;;;;15.82;9.48;;;;;;;6.92;46.15;97996.75;10390760;28;20068;-78
2023/03/04 08:17:36;;;;;;;16.52;9.95;;;;;;;5.93;47.03;97986.81;10376870;28;20048;-78
2023/03/04 08:22:57;;;;;;;15.05;9.55;;;;;;;5.39;48.22;97994.41;10377331;28;20537;-77
2023/03/04 08:28:18;;;;;;;18.38;10.20;;;;;;;5.13;48.98;97986.50;10376442;28;20100;-76
2023/03/04 08:33:38;;;;;;;17.23;10.13;;;;;;;5.09;48.78;97994.41;10389742;28;20049;-77
2023/03/04 08:38:59;;;;;;;15.88;10.20;;;;;;;5.10;49.33;97987.56;10374799;28;20049;-78
2023/03/04 08:44:20;;;;;;;16.17;9.55;;;;;;;5.54;48.93;97993.69;10389535;28;20041;-78
2023/03/04 08:49:41;;;;;;;17.45;9.07;;;;;;;5.90;48.71;97987.19;10376423;28;20517;-78
2023/03/04 08:55:02;;;;;;;13.57;8.60;;;;;;;5.86;48.26;97984.03;10375379;28;20041;-79
2023/03/04 09:00:24;;;;;;;14.65;9.70;;;;;;;5.53;48.26;97989.44;10351936;28;20480;-79
2023/03/04 09:05:45;;;;;;;14.35;9.75;;;;;;;5.39;48.85;97988.88;10421356;28;20061;-79
2023/03/04 09:11:08;;;;;;;15.83;9.80;;;;;;;5.28;48.77;97992.00;10430142;28;20067;-78
2023/03/04 09:16:29;;;;;;;13.05;8.20;;;;;;;5.41;49.07;97997.38;10415962;28;20044;-78
2023/03/04 09:21:50;;;;;;;13.90;9.05;;;;;;;5.75;48.35;97987.94;10415957;28;20048;-78
2023/03/04 09:27:11;;;;;;;12.25;8.30;;;;;;;5.90;48.17;97995.50;10412928;28;20048;-78
2023/03/04 09:32:32;;;;;;;16.55;9.20;;;;;;;5.99;48.04;97986.63;10442878;28;20037;-80
2023/03/04 09:37:53;;;;;;;15.55;9.40;;;;;;;5.89;47.80;97980.16;10442260;28;20411;-78
2023/03/04 09:43:22;;;;;;;15.05;8.73;;;;;;;5.82;47.47;97987.19;10414658;28;20052;-78
2023/03/04 09:48:51;;;;;;;18.05;8.93;;;;;;;5.69;48.02;97984.59;10415125;28;20071;-79
2023/03/04 09:54:33;;;;;;;16.42;8.98;;;;;;;5.71;47.70;97982.78;10334039;28;20046;-79
2023/03/04 10:00:19;;;;;;;17.20;8.93;;;;;;;5.75;47.35;97971.31;10360147;28;20045;-78
2023/03/04 10:05:56;;;;;;;14.75;7.88;;;;;;;5.59;47.94;97969.84;10359751;28;20519;-78
2023/03/04 10:11:23;;;;;;;15.90;10.27;;;;;;;5.31;48.34;97970.81;10360012;28;20045;-77
2023/03/04 10:16:52;;;;;;;15.38;9.40;;;;;;;5.26;48.16;97964.16;10359845;28;20473;-79
2023/03/04 10:22:26;;;;;;;17.45;10.13;;;;;;;5.31;48.35;97952.19;10347313;28;20065;-76
2023/03/04 10:27:52;;;;;;;17.08;9.48;;;;;;;5.32;48.72;97945.34;10346859;28;20065;-77
2023/03/04 10:33:21;;;;;;;15.52;9.15;;;;;;;5.43;48.82;97947.72;10356778;28;20099;-78
2023/03/04 10:38:42;;;;;;;14.30;9.18;;;;;;;5.59;48.64;97937.34;10379770;28;20117;-78
2023/03/04 10:44:07;;;;;;;15.32;8.23;;;;;;;5.87;48.78;97919.75;10382248;28;20041;-79
2023/03/04 10:49:29;;;;;;;14.45;8.60;;;;;;;6.15;48.45;97923.56;10393941;28;20419;-79
2023/03/04 10:54:52;;;;;;;14.55;8.45;;;;;;;6.31;48.11;97916.66;10385467;28;20045;-78
2023/03/04 11:00:16;;;;;;;13.02;8.85;;;;;;;6.69;47.59;97907.38;10386894;28;20053;-78
2023/03/04 11:05:37;;;;;;;12.35;8.13;;;;;;;6.84;46.96;97905.22;10414582;28;20506;-79
2023/03/04 11:10:58;;;;;;;14.65;8.25;;;;;;;6.95;46.87;97900.53;10380185;28;20049;-79
2023/03/04 11:16:37;;;;;;;13.82;7.75;;;;;;;6.87;46.65;97886.72;10393804;28;20045;-78
2023/03/04 11:21:58;;;;;;;14.20;7.50;;;;;;;7.16;46.32;97887.06;10393525;28;20065;-79
2023/03/04 11:27:22;;;;;;;15.05;7.85;;;;;;;7.23;46.42;97885.50;10406510;28;20091;-79
2023/03/04 11:32:45;;;;;;;16.33;9.15;;;;;;;7.12;45.96;97876.31;10379490;28;20056;-78
2023/03/04 11:38:18;;;;;;;15.63;9.93;;;;;;;7.41;45.98;97870.31;10406081;28;20467;-79
2023/03/04 11:43:43;;;;;;;16.40;9.63;;;;;;;7.46;45.70;97872.88;10406130;28;20479;-79
2023/03/04 11:49:23;;;;;;;11.55;8.05;;;;;;;7.56;45.23;97867.41;10406131;28;20050;-79
2023/03/04 11:55:10;;;;;;;15.30;10.05;;;;;;;8.13;44.48;97865.63;10419362;28;20053;-79
2023/03/04 12:00:36;;;;;;;15.27;9.70;;;;;;;8.38;44.08;97863.44;10420091;28;20052;-78
2023/03/04 12:06:03;;;;;;;17.00;9.82;;;;;;;8.14;44.13;97855.97;10391844;28;20053;-79
2023/03/04 12:11:46;;;;;;;12.05;7.65;;;;;;;7.87;44.11;97839.25;10418982;28;20042;-79
2023/03/04 12:17:40;;;;;;;11.25;6.68;;;;;;;7.60;45.03;97834.38;10392483;28;20049;-79
2023/03/04 12:23:17;;;;;;;15.35;8.48;;;;;;;7.82;44.47;97837.50;10419001;28;20079;-79
2023/03/04 12:28:50;;;;;;;12.52;8.25;;;;;;;7.89;44.54;97829.03;10405630;28;20042;-78
2023/03/04 12:34:32;;;;;;;11.05;5.55;;;;;;;7.86;44.80;97826.69;10417468;28;20038;-79
2023/03/04 12:40:30;;;;;;;11.32;4.85;;;;;;;7.82;44.36;97820.81;10403430;28;20049;-79
2023/03/04 12:46:29;;;;;;;11.57;6.20;;;;;;;7.61;44.96;97818.44;10405702;28;20056;-78
2023/03/04 12:52:10;;;;;;;9.75;5.05;;;;;;;7.40;45.05;97821.66;10405576;28;20049;-79
2023/03/04 12:57:32;;;;;;;8.25;4.63;;;;;;;7.23;45.28;97813.31;10390856;28;20041;-78
2023/03/04 13:03:08;;;;;;;9.02;4.18;;;;;;;7.16;45.96;97809.31;10395145;28;20095;-79
2023/03/04 13:08:35;;;;;;;9.27;4.22;;;;;;;7.18;45.99;97815.03;10443451;28;20041;-78
2023/03/04 13:14:04;;;;;;;5.43;2.53;;;;;;;7.00;46.18;97811.50;10443827;28;20549;-79
2023/03/04 13:19:45;;;;;;;4.65;2.00;;;;;;;6.91;46.17;97809.34;10416284;28;20048;-79
2023/03/04 13:25:44;;;;;;;5.07;1.90;;;;;;;6.92;46.75;97807.31;10429884;28;20048;-79
2023/03/04 13:31:06;;;;;;;2.75;1.23;;;;;;;6.92;46.73;97804.53;10428409;28;20045;-79
2023/03/04 13:36:50;;;;;;;5.82;1.40;;;;;;;6.93;46.53;97803.97;10429082;28;20470;-78
2023/03/04 13:42:37;;;;;;;3.03;1.20;;;;;;;6.94;46.76;97794.34;10417641;28;20475;-79
2023/03/04 13:47:58;;;;;;;4.70;1.05;;;;;;;6.96;46.74;97791.75;10428812;28;20045;-79
2023/03/04 13:53:30;;;;;;;4.32;1.10;;;;;;;6.92;46.61;97785.13;10414659;28;20068;-78
2023/03/04 13:59:24;;;;;;;5.18;1.20;;;;;;;6.93;47.17;97784.53;10430306;28;20083;-78
2023/03/04 14:04:46;;;;;;;;;;;;;;;6.88;47.59;97785.53;10402738;28;20128;-78
2023/03/04 14:10:10;;;;;;;4.10;1.77;;;;;;;6.93;47.55;97801.19;10427888;28;19948;-79
2023/03/04 14:15:34;;;;;;;2.42;1.00;;;;;;;6.98;47.08;97791.91;10456513;28;20041;-78
2023/03/04 14:20:57;;;;;;;2.00;0.82;;;;;;;6.97;47.06;97787.66;10415439;28;20525;-78
2023/03/04 14:26:18;;;;;;;1.53;0.50;;;;;;;7.01;46.89;97779.66;10429279;28;20041;-79
2023/03/04 14:31:39;;;;;;;3.45;0.70;;;;;;;7.02;46.68;97774.84;10441401;28;20041;-79
2023/03/04 14:37:02;;;;;;;2.35;0.90;;;;;;;7.09;46.78;97785.13;10414346;28;20041;-78
2023/03/04 14:42:25;;;;;;;3.35;0.55;;;;;;;7.11;46.69;97769.38;10417102;28;20048;-78
2023/03/04 14:47:47;;;;;;;3.15;0.80;;;;;;;7.03;46.77;97765.94;10436125;28;20045;-79
2023/03/04 14:53:08;;;;;;;3.58;0.80;;;;;;;7.00;46.75;97758.75;10435619;28;20422;-79
2023/03/04 14:58:30;;;;;;;2.65;0.60;;;;;;;6.93;46.83;97767.91;10434970;28;20047;-78
2023/03/04 15:04:01;;;;;;;4.70;0.95;;;;;;;6.87;46.90;97761.88;10435445;28;20057;-78
2023/03/04 15:09:23;;;;;;;3.85;1.10;;;;;;;6.72;47.17;97751.63;10435056;28;20399;-79
2023/03/04 15:14:51;;;;;;;4.05;1.52;;;;;;;6.61;47.52;97757.66;10421676;28;20045;-78
2023/03/04 15:20:23;;;;;;;4.95;1.85;;;;;;;6.55;47.62;97749.56;10422065;28;20041;-78
2023/03/04 15:25:44;;;;;;;3.35;1.85;;;;;;;6.46;47.80;97736.31;10434643;28;20064;-78
2023/03/04 15:31:06;;;;;;;3.13;1.40;;;;;;;6.37;48.08;97734.19;10420283;28;20064;-78
2023/03/04 15:36:26;;;;;;;4.13;1.52;;;;;;;6.32;47.97;97738.66;10419891;28;20437;-78
2023/03/04 15:41:49;;;;;;;4.20;0.90;;;;;;;6.24;48.44;97732.44;10419677;28;20037;-78
2023/03/04 15:47:12;;;;;;;3.60;0.93;;;;;;;6.18;48.71;97733.97;10419593;28;20438;-78
2023/03/04 15:52:34;;;;;;;2.97;0.93;;;;;;;6.11;49.25;97729.22;10433719;28;20064;-78
2023/03/04 15:57:56;;;;;;;3.70;1.17;;;;;;;6.08;48.97;97722.00;10419130;28;20060;-78
2023/03/04 16:03:18;;;;;;;3.05;1.35;;;;;;;6.02;49.19;97720.22;10446571;28;20072;-78
2023/03/04 16:08:39;;;;;;;4.22;1.40;;;;;;;5.92;49.50;97724.91;10432423;28;20056;-78
2023/03/04 16:14:00;;;;;;;6.90;1.88;;;;;;;5.88;49.48;97723.78;10418182;28;20048;-78
2023/03/04 16:19:21;;;;;;;5.22;1.52;;;;;;;5.82;50.23;97714.97;10418065;28;20040;-78
2023/03/04 16:24:43;;;;;;;5.68;1.50;;;;;;;5.83;49.82;97711.63;10418015;28;20049;-78
2023/03/04 16:30:05;;;;;;;6.80;1.77;;;;;;;5.71;49.97;97716.88;10417553;28;20548;-79
2023/03/04 16:35:27;;;;;;;7.00;2.95;;;;;;;5.63;51.15;97707.88;10403998;28;20044;-78
2023/03/04 16:40:49;;;;;;;5.18;1.73;;;;;;;5.57;50.41;97712.16;10431169;28;20049;-78
2023/03/04 16:46:10;;;;;;;3.40;1.60;;;;;;;5.51;50.94;97717.91;10416783;28;20065;-78
2023/03/04 16:51:39;;;;;;;3.63;1.52;;;;;;;5.52;51.16;97710.34;10417053;28;20490;-78
2023/03/04 16:56:59;;;;;;;6.00;2.53;;;;;;;5.45;51.26;97712.59;10417049;28;20037;-79
2023/03/04 17:02:21;;;;;;;4.60;1.83;;;;;;;5.42;51.54;97707.44;10402866;28;20045;-78
2023/03/04 17:07:42;;;;;;;5.30;1.88;;;;;;;5.41;51.52;97708.75;10415554;28;20402;-78
2023/03/04 17:13:04;;;;;;;4.22;1.75;;;;;;;5.37;51.78;97714.66;10417155;28;20037;-78
2023/03/04 17:18:25;;;;;;;4.05;1.40;;;;;;;5.36;51.97;97704.13;10416909;28;20116;-78
2023/03/04 17:23:46;;;;;;;4.65;1.80;;;;;;;5.32;51.92;97714.88;10405006;28;20099;-78
2023/03/04 17:29:08;;;;;;;5.05;2.13;;;;;;;5.29;52.03;97722.25;10417079;28;20087;-78
2023/03/04 17:34:29;;;;;;;6.55;2.10;;;;;;;5.27;52.79;97721.34;10429387;28;20086;-78
2023/03/04 17:39:50;;;;;;;6.07;2.78;;;;;;;5.24;52.64;97714.91;10428749;28;20037;-78
2023/03/04 17:45:11;;;;;;;6.28;2.47;;;;;;;5.11;53.19;97717.88;10399611;28;20110;-79
2023/03/04 17:50:32;;;;;;;7.32;3.85;;;;;;;5.10;53.71;97722.69;10413854;28;20041;-79
2023/03/04 17:56:01;;;;;;;7.20;2.90;;;;;;;5.06;54.24;97722.34;10412606;28;20445;-80
2023/03/04 18:01:22;;;;;;;7.00;3.28;;;;;;;5.04;54.19;97724.94;10428365;28;20376;-78
2023/03/04 18:06:43;;;;;;;6.50;2.97;;;;;;;4.97;54.49;97713.88;10427902;28;20060;-78
2023/03/04 18:12:05;;;;;;;6.95;3.25;;;;;;;4.91;55.11;97716.09;10428371;28;20059;-78
2023/03/04 18:17:26;;;;;;;7.80;3.53;;;;;;;4.88;55.25;97713.16;10415575;28;20383;-79
2023/03/04 18:22:47;;;;;;;6.15;2.95;;;;;;;4.83;54.90;97716.13;10409211;28;20076;-79
2023/03/04 18:28:08;;;;;;;6.90;3.63;;;;;;;4.80;55.59;97712.44;10425439;28;20049;-79
2023/03/04 18:33:29;;;;;;;8.48;4.03;;;;;;;4.81;55.39;97718.69;10393992;28;20488;-79
2023/03/04 18:38:51;;;;;;;7.00;3.80;;;;;;;4.81;55.55;97716.66;10394813;28;20052;-76
2023/03/04 18:44:12;;;;;;;7.25;3.50;;;;;;;4.78;55.81;97717.78;10365923;28;20061;-77
2023/03/04 18:49:33;;;;;;;7.55;3.53;;;;;;;4.78;56.16;97720.56;10378131;28;20046;-77
2023/03/04 18:54:54;;;;;;;7.20;3.45;;;;;;;4.74;55.95;97722.97;10372946;28;20045;-79
2023/03/04 19:00:16;;;;;;;10.82;4.50;;;;;;;4.72;56.58;97728.31;10380109;28;20103;-80
2023/03/04 19:05:38;;;;;;;11.30;3.67;;;;;;;4.72;56.80;97733.84;10380176;28;20053;-79
2023/03/04 19:10:59;;;;;;;9.77;4.15;;;;;;;4.67;57.16;97723.72;10407456;28;20041;-79
2023/03/04 19:16:20;;;;;;;10.55;4.13;;;;;;;4.66;57.17;97736.06;10394693;28;20037;-79
2023/03/04 19:21:41;;;;;;;10.25;4.10;;;;;;;4.66;57.28;97736.06;10393438;28;20046;-79
2023/03/04 19:27:04;;;;;;;9.63;3.75;;;;;;;4.62;57.01;97741.22;10392303;28;20050;-77
2023/03/04 19:32:25;;;;;;;11.77;4.25;;;;;;;4.59;57.52;97728.50;10392147;28;20050;-78
2023/03/04 19:37:45;;;;;;;11.55;4.15;;;;;;;4.56;57.77;97737.94;10392151;28;20472;-77
2023/03/04 19:43:07;;;;;;;10.55;4.88;;;;;;;4.51;58.24;97730.53;10378529;28;20400;-80
2023/03/04 19:48:27;;;;;;;12.30;4.60;;;;;;;4.53;57.97;97733.47;10391883;28;20045;-80
2023/03/04 19:53:51;;;;;;;9.80;4.38;;;;;;;4.49;58.75;97741.44;10405460;28;20052;-79
2023/03/04 19:59:12;;;;;;;11.90;4.57;;;;;;;4.47;58.45;97741.25;10391983;28;20049;-79
2023/03/04 20:04:33;;;;;;;14.02;5.15;;;;;;;4.49;58.12;97728.34;10404639;28;20061;-79
2023/03/04 20:09:55;;;;;;;12.73;5.18;;;;;;;4.55;58.59;97739.22;10391163;28;20411;-77
2023/03/04 20:15:16;;;;;;;11.10;5.40;;;;;;;4.49;58.67;97741.44;10390592;28;20042;-78
2023/03/04 20:20:37;;;;;;;10.57;5.10;;;;;;;4.43;58.46;97738.09;10390481;28;20048;-79
2023/03/04 20:25:58;;;;;;;10.57;5.65;;;;;;;4.41;58.52;97737.91;10382137;28;20049;-78
2023/03/04 20:31:20;;;;;;;10.52;5.05;;;;;;;4.41;59.00;97743.44;10376437;28;20060;-78
2023/03/04 20:36:41;;;;;;;12.75;5.00;;;;;;;4.39;59.24;97737.75;10403738;28;20526;-78
2023/03/04 20:42:02;;;;;;;12.18;5.38;;;;;;;4.41;58.77;97727.59;10403236;28;20042;-78
2023/03/04 20:47:23;;;;;;;13.98;5.13;;;;;;;4.45;58.81;97732.78;10389585;28;20041;-77
2023/03/04 20:52:47;;;;;;;11.38;5.25;;;;;;;4.43;58.99;97736.06;10389146;28;20072;-78
2023/03/04 20:58:09;;;;;;;10.60;4.78;;;;;;;4.44;59.29;97745.09;10403172;28;20037;-78
2023/03/04 21:03:30;;;;;;;7.75;4.55;;;;;;;4.42;58.79;97742.16;10375070;28;20129;-77
2023/03/04 21:08:51;;;;;;;11.13;4.90;;;;;;;4.35;58.97;97740.88;10388445;28;20116;-77
2023/03/04 21:14:18;;;;;;;12.13;5.32;;;;;;;4.32;58.45;97747.50;10388392;28;20045;-78
2023/03/04 21:19:43;;;;;;;11.07;5.07;;;;;;;4.30;59.48;97734.25;10388014;28;20053;-78
2023/03/04 21:25:05;;;;;;;14.32;5.70;;;;;;;4.31;59.90;97732.94;10388797;28;20050;-79
2023/03/04 21:30:25;;;;;;;13.85;5.85;;;;;;;4.24;59.50;97730.91;10401608;28;20543;-79
2023/03/04 21:35:47;;;;;;;13.40;6.47;;;;;;;4.23;59.84;97739.75;10387623;28;20042;-80
2023/03/04 21:41:26;;;;;;;16.35;6.25;;;;;;;4.24;59.82;97730.91;10387501;28;20115;-80
2023/03/04 21:46:47;;;;;;;15.88;6.80;;;;;;;4.23;59.74;97729.44;10387612;28;20055;-78
2023/03/04 21:52:08;;;;;;;11.45;5.75;;;;;;;4.22;60.09;97724.47;10392237;28;20376;-78
2023/03/04 21:57:29;;;;;;;18.35;6.97;;;;;;;4.22;60.64;97724.47;10401171;28;20063;-78
2023/03/04 22:02:50;;;;;;;13.20;6.72;;;;;;;4.19;61.10;97720.06;10400715;28;20403;-77
2023/03/04 22:08:12;;;;;;;12.73;6.28;;;;;;;4.18;61.12;97716.56;10388364;28;20103;-77
2023/03/04 22:13:33;;;;;;;13.68;6.38;;;;;;;4.16;61.48;97729.47;10382612;28;20049;-77
2023/03/04 22:18:55;;;;;;;13.82;6.38;;;;;;;4.12;62.28;97723.56;10368845;28;20498;-80
2023/03/04 22:24:15;;;;;;;13.43;6.47;;;;;;;4.09;62.12;97728.16;10382644;28;20479;-80
2023/03/04 22:29:36;;;;;;;17.83;6.78;;;;;;;4.07;62.96;97727.97;10371288;28;20049;-81
2023/03/04 22:34:57;;;;;;;18.00;7.63;;;;;;;4.07;63.81;97722.44;10385292;28;20037;-80
2023/03/04 22:40:18;;;;;;;12.35;6.93;;;;;;;4.04;63.14;97718.00;10387316;28;20057;-79
2023/03/04 22:45:40;;;;;;;16.58;7.32;;;;;;;4.03;63.58;97708.25;10366380;28;20050;-79
2023/03/04 22:51:04;;;;;;;11.45;6.60;;;;;;;3.96;63.52;97717.28;10384123;28;20037;-80
2023/03/04 22:56:28;;;;;;;13.88;7.70;;;;;;;3.90;64.51;97722.97;10380508;28;20038;-80
2023/03/04 23:01:50;;;;;;;13.55;6.80;;;;;;;3.93;64.72;97721.88;10433578;23;20114;-79
2023/03/04 23:07:11;;;;;;;13.25;7.38;;;;;;;3.90;64.96;97700.88;10462085;28;20098;-78
2023/03/04 23:12:32;;;;;;;14.88;7.18;;;;;;;3.92;64.62;97701.06;10475852;28;20471;-79
2023/03/04 23:17:53;;;;;;;11.45;6.32;;;;;;;3.93;65.21;97713.59;10475514;28;20041;-80
2023/03/04 23:23:14;;;;;;;15.65;6.57;;;;;;;3.97;64.83;97707.72;10461865;28;20505;-79
2023/03/04 23:28:35;;;;;;;12.50;6.65;;;;;;;4.00;64.40;97715.63;10475125;28;20123;-79
2023/03/04 23:33:56;;;;;;;14.63;7.07;;;;;;;4.00;64.75;97701.09;10475338;28;20044;-79
2023/03/04 23:39:18;;;;;;;11.57;6.07;;;;;;;4.01;64.85;97706.06;10462821;28;20040;-78
2023/03/04 23:44:38;;;;;;;17.60;6.40;;;;;;;4.00;64.77;97703.84;10476823;28;20048;-79
2023/03/04 23:50:02;;;;;;;13.30;6.50;;;;;;;3.97;64.38;97708.44;10475191;28;20516;-80
2023/03/04 23:55:23;;;;;;;11.98;6.35;;;;;;;3.93;64.84;97710.81;10474833;28;20045;-79
